Osgood, IN (47037)

3:21 PM EST on December 09, 2016 (GMT -0500)
Holt Road | | Change Station

Elev 991 ft 39.18 °N, 85.09 °W | Updated 14 seconds ago

Overcast
Overcast
24.4 °F
Feels Like 24 °F
N
1.8
Wind Variable Wind from SW
Gusts 2.5 mph

Today
High -- | Low -- °F
--% Chance of Precip.
Yesterday
High -- | Low -- °F
Precip. -- in
Pressure 30.53 in
Visibility 10.0 miles
Clouds Overcast 3200 ft
Windchill 24 °F
Dew Point 9 °F
Humidity 51%
Rainfall 0.00 in
Snow Depth Not available.
7:49 AM 5:18 PM
Waxing Gibbous, 77% visible
METAR KBAK 091949Z 25008KT 10SM OVC032 M03/M09 A3053
Pressure 30.53 in
Visibility 10.0 miles
Clouds Overcast 3200 ft
Windchill 24 °F
Dew Point 9 °F
Humidity 51%
Rainfall 0.00 in
Snow Depth Not available.
7:49 AM 5:18 PM
Waxing Gibbous, 77% visible
METAR KBAK 091949Z 25008KT 10SM OVC032 M03/M09 A3053

10-Day Weather Forecast

Almanac

Astronomy

Dec. 09, 2016 Rise Set
Actual Time
Civil Twilight
Nautical Twilight
Astronomical Twilight
Moon
Length of Visible Light
Length of Day
Tomorrow will be .
, % of the Moon is Illuminated

Today's Extremes

State Highs State Lows

Community

WunderPhotos

Upload Photos

1,956,517 photos uploaded!

WunderBlog® & News

Nearby

Air Quality

  Air Quality AQ Index Pollutant
Not available.

Snow Depth

Station Depth Elevation

Earthquake Activity

City Distance Mag. Time & Date
Minimum magnitude displayed is 2.5.

Coastal Water Temperatures

Place Temperature

Stations

Nearby Weather Stations

Station Location Temp. Windchill Dew Point Humidity Wind Precip. Elev Updated Type
                   

Watches & Warnings

There are currently no watches in effect.